createdAt,value
2018-12-17T00:02:14.954Z,38.13
2018-12-17T00:04:47.724Z,36.43
2018-12-17T00:07:20.404Z,34.47
2018-12-17T00:09:51.134Z,29.00
2018-12-17T00:12:22.122Z,33.73
2018-12-17T00:14:54.870Z,31.97
2018-12-17T00:17:28.540Z,30.67
2018-12-17T00:19:59.079Z,31.13
2018-12-17T00:22:29.667Z,30.40
2018-12-17T00:25:00.357Z,32.80
2018-12-17T00:27:30.898Z,29.70
2018-12-17T00:30:01.535Z,31.10
2018-12-17T00:32:32.382Z,33.97
2018-12-17T00:35:03.149Z,32.30
2018-12-17T00:37:33.883Z,34.37
2018-12-17T00:42:49.374Z,31.47
2018-12-17T00:45:20.370Z,31.67
2018-12-17T00:47:51.061Z,31.93
2018-12-17T00:50:21.557Z,32.87
2018-12-17T00:52:52.052Z,32.10
2018-12-17T00:55:22.549Z,30.53
2018-12-17T00:57:53.106Z,34.53
2018-12-17T01:00:23.617Z,36.27
2018-12-17T01:02:54.486Z,34.13
2018-12-17T01:05:25.018Z,35.67
2018-12-17T01:07:55.510Z,33.80
2018-12-17T01:10:26.042Z,34.27
2018-12-17T01:12:57.491Z,36.97
2018-12-17T01:15:27.957Z,35.00
2018-12-17T01:17:58.521Z,33.27
2018-12-17T01:20:28.962Z,35.13
2018-12-17T01:22:59.499Z,34.07
2018-12-17T01:25:30.024Z,33.77
2018-12-17T01:28:00.629Z,32.53
2018-12-17T01:30:31.251Z,32.70
2018-12-17T01:33:01.809Z,32.30
2018-12-17T01:35:32.340Z,31.90
2018-12-17T01:38:02.902Z,37.93
2018-12-17T01:40:33.598Z,38.47
2018-12-17T01:43:04.173Z,40.33
2018-12-17T01:45:34.721Z,37.03
2018-12-17T01:48:05.318Z,34.40
2018-12-17T01:50:35.852Z,33.53
2018-12-17T01:53:06.410Z,29.50
2018-12-17T01:55:37.212Z,30.33
2018-12-17T01:58:07.683Z,29.37
2018-12-17T02:00:39.462Z,30.93
2018-12-17T02:03:09.958Z,29.57
2018-12-17T02:05:40.539Z,31.43
2018-12-17T02:08:11.077Z,34.53
2018-12-17T02:10:48.143Z,35.40
2018-12-17T02:13:18.710Z,34.77
2018-12-17T02:15:49.202Z,31.57
2018-12-17T02:18:19.775Z,35.80
2018-12-17T02:20:50.269Z,32.77
2018-12-17T02:23:20.873Z,32.30
2018-12-17T02:25:51.538Z,33.13
2018-12-17T02:28:22.097Z,33.83
2018-12-17T02:30:52.613Z,38.17
2018-12-17T02:33:23.153Z,36.00
2018-12-17T02:35:53.663Z,34.60
2018-12-17T02:38:24.324Z,33.37
2018-12-17T02:40:54.882Z,32.83
2018-12-17T02:43:25.417Z,29.17
2018-12-17T02:45:55.912Z,30.63
2018-12-17T02:48:26.468Z,30.43
2018-12-17T02:50:57.060Z,31.43
2018-12-17T02:53:27.728Z,30.97
2018-12-17T02:55:58.246Z,31.63
2018-12-17T02:58:28.784Z,29.97
2018-12-17T03:00:59.333Z,30.37
2018-12-17T03:03:29.842Z,28.97
2018-12-17T03:06:00.609Z,29.80
2018-12-17T03:08:31.136Z,29.07
2018-12-17T03:11:01.710Z,34.50
2018-12-17T03:13:32.285Z,37.90
2018-12-17T03:16:02.880Z,44.07
2018-12-17T03:18:33.440Z,40.67
2018-12-17T03:21:04.031Z,37.90
2018-12-17T03:23:34.575Z,36.93
2018-12-17T03:26:05.108Z,33.70
2018-12-17T03:28:35.626Z,30.57
2018-12-17T03:31:06.195Z,31.30
2018-12-17T03:33:36.949Z,32.63
2018-12-17T03:36:07.486Z,30.03
2018-12-17T03:38:38.008Z,31.77
2018-12-17T03:41:08.614Z,34.23
2018-12-17T03:43:39.203Z,37.00
2018-12-17T03:46:09.741Z,43.43
2018-12-17T03:48:40.281Z,44.07
2018-12-17T03:51:10.849Z,42.43
2018-12-17T03:53:41.374Z,42.87
2018-12-17T03:56:11.931Z,39.90
2018-12-17T03:58:42.454Z,36.60
2018-12-17T04:01:12.932Z,37.13
2018-12-17T04:03:43.466Z,33.83
2018-12-17T04:06:13.943Z,34.97
2018-12-17T04:08:44.482Z,39.57
2018-12-17T04:11:15.039Z,41.73
2018-12-17T04:13:45.584Z,39.63
2018-12-17T04:16:16.154Z,43.10
2018-12-17T04:18:46.692Z,45.40
2018-12-17T04:21:17.323Z,45.93
2018-12-17T04:23:47.856Z,43.90
2018-12-17T04:26:20.395Z,41.57
2018-12-17T04:28:50.904Z,34.43
2018-12-17T04:31:21.481Z,32.90
2018-12-17T04:33:52.091Z,32.90
2018-12-17T04:36:22.681Z,32.63
2018-12-17T04:38:53.288Z,32.67
2018-12-17T04:41:23.912Z,30.73
2018-12-17T04:43:54.495Z,30.37
2018-12-17T04:46:25.150Z,31.50
2018-12-17T04:48:55.734Z,31.03
2018-12-17T04:51:26.394Z,31.40
2018-12-17T04:53:56.885Z,28.47
2018-12-17T04:56:27.438Z,31.07
2018-12-17T04:58:57.945Z,29.93
2018-12-17T05:01:28.521Z,30.70
2018-12-17T05:03:59.057Z,31.53
2018-12-17T05:06:29.660Z,34.90
2018-12-17T05:09:00.282Z,34.20
2018-12-17T05:11:30.975Z,32.80
2018-12-17T05:14:01.736Z,34.63
2018-12-17T05:16:33.354Z,32.53
2018-12-17T05:19:03.858Z,30.37
2018-12-17T05:21:34.444Z,29.50
2018-12-17T05:24:04.958Z,30.93
2018-12-17T05:26:35.515Z,31.30
2018-12-17T05:29:06.111Z,30.93
2018-12-17T05:31:36.719Z,33.20
2018-12-17T05:34:07.267Z,30.77
2018-12-17T05:36:37.774Z,29.70
2018-12-17T05:39:08.686Z,30.87
2018-12-17T05:41:39.339Z,29.00
2018-12-17T05:44:09.881Z,28.63
2018-12-17T05:46:40.489Z,28.33
2018-12-17T05:49:11.255Z,30.30
2018-12-17T05:51:41.821Z,30.17
2018-12-17T05:54:12.503Z,30.07
2018-12-17T05:56:43.130Z,30.70
2018-12-17T05:59:13.650Z,30.00
2018-12-17T06:01:44.255Z,27.83
2018-12-17T06:04:14.853Z,28.13
2018-12-17T06:06:45.452Z,29.77
2018-12-17T06:09:16.698Z,30.77
2018-12-17T06:11:47.345Z,28.43
2018-12-17T06:14:17.946Z,28.90
2018-12-17T06:16:48.510Z,30.07
2018-12-17T06:19:19.194Z,29.70
2018-12-17T06:21:49.742Z,35.10
2018-12-17T06:24:20.888Z,34.30
2018-12-17T06:26:51.382Z,35.97
2018-12-17T06:29:21.931Z,34.23
2018-12-17T06:31:52.505Z,39.10
2018-12-17T06:34:26.098Z,38.17
2018-12-17T06:36:57.897Z,43.37
2018-12-17T06:39:28.395Z,65.20
2018-12-17T06:41:58.966Z,59.77
2018-12-17T06:44:29.527Z,58.40
2018-12-17T06:47:00.145Z,42.83
2018-12-17T06:49:30.714Z,36.63
2018-12-17T06:52:01.409Z,38.90
2018-12-17T06:54:31.995Z,52.77
2018-12-17T06:57:02.586Z,58.73
2018-12-17T06:59:33.153Z,80.23
2018-12-17T07:02:04.142Z,88.77
2018-12-17T07:04:34.663Z,81.00
2018-12-17T07:07:05.211Z,94.57
2018-12-17T07:09:35.701Z,90.00
2018-12-17T07:12:06.274Z,86.50
2018-12-17T07:14:36.868Z,51.30
2018-12-17T07:17:07.500Z,47.37
2018-12-17T07:19:38.136Z,82.10
2018-12-17T07:22:08.732Z,83.27
2018-12-17T07:24:39.333Z,92.47
2018-12-17T07:27:09.924Z,87.33
2018-12-17T07:29:40.513Z,96.27
2018-12-17T07:32:11.080Z,101.20
2018-12-17T07:34:42.089Z,92.97
2018-12-17T07:37:12.704Z,88.27
2018-12-17T07:39:43.598Z,77.20
2018-12-17T07:42:14.117Z,69.97
2018-12-17T07:44:44.610Z,63.87
2018-12-17T07:47:15.180Z,67.27
2018-12-17T07:49:45.707Z,56.33
2018-12-17T07:52:16.242Z,51.43
2018-12-17T07:54:46.834Z,45.80
2018-12-17T07:57:17.296Z,45.60
2018-12-17T07:59:47.945Z,48.00
2018-12-17T08:02:18.546Z,47.97
2018-12-17T08:04:49.130Z,48.10
2018-12-17T08:07:19.675Z,39.97
2018-12-17T08:09:50.207Z,39.90
2018-12-17T08:12:20.718Z,34.90
2018-12-17T08:14:51.484Z,33.20
2018-12-17T08:17:21.994Z,34.50
2018-12-17T08:19:52.630Z,36.80
2018-12-17T08:22:23.355Z,37.77
2018-12-17T08:24:53.846Z,34.03
2018-12-17T08:27:24.314Z,35.93
2018-12-17T08:29:54.863Z,34.40
2018-12-17T08:32:25.486Z,30.53
2018-12-17T08:34:55.984Z,33.30
2018-12-17T08:37:26.482Z,33.70
2018-12-17T08:39:56.975Z,36.23
2018-12-17T08:42:27.509Z,33.37
2018-12-17T08:44:58.018Z,38.03
2018-12-17T08:47:28.529Z,39.90
2018-12-17T08:49:59.015Z,39.77
2018-12-17T08:52:30.443Z,38.23
2018-12-17T08:55:01.212Z,36.80
2018-12-17T08:57:37.817Z,39.10
2018-12-17T09:00:10.775Z,35.50
2018-12-17T09:02:37.277Z,35.70
2018-12-17T09:05:07.802Z,36.10
2018-12-17T09:07:38.572Z,38.23
2018-12-17T09:10:09.576Z,47.13
2018-12-17T09:12:40.088Z,37.53
2018-12-17T09:15:10.584Z,36.47
2018-12-17T09:17:41.170Z,34.67
2018-12-17T09:20:11.673Z,33.87
2018-12-17T09:22:42.220Z,34.33
2018-12-17T09:25:12.729Z,36.70
2018-12-17T09:27:43.356Z,36.83
2018-12-17T09:30:20.591Z,37.00
2018-12-17T09:32:51.332Z,34.60
2018-12-17T09:35:21.815Z,33.17
2018-12-17T09:37:52.337Z,36.03
2018-12-17T09:40:22.824Z,36.47
2018-12-17T09:42:53.417Z,35.77
2018-12-17T09:45:23.925Z,38.10
2018-12-17T09:47:54.452Z,37.40
2018-12-17T09:50:24.994Z,39.10
2018-12-17T09:52:55.555Z,37.10
2018-12-17T09:55:26.274Z,36.27
2018-12-17T09:57:56.785Z,51.43
2018-12-17T10:00:27.830Z,85.57
2018-12-17T10:02:58.323Z,54.53
2018-12-17T10:05:28.878Z,49.33
2018-12-17T10:08:00.562Z,42.73
2018-12-17T10:10:31.426Z,43.03
2018-12-17T10:13:02.295Z,43.60
2018-12-17T10:15:32.986Z,35.23
2018-12-17T10:18:03.785Z,37.27
2018-12-17T10:20:39.007Z,38.80
2018-12-17T10:23:10.827Z,39.43
2018-12-17T10:25:42.396Z,39.53
2018-12-17T10:28:12.931Z,42.80
2018-12-17T10:30:43.757Z,38.40
2018-12-17T10:33:14.223Z,41.07
2018-12-17T10:35:44.791Z,37.80
2018-12-17T10:38:15.399Z,39.10
2018-12-17T10:40:45.966Z,36.40
2018-12-17T10:43:16.655Z,39.30
2018-12-17T10:45:47.186Z,39.80
2018-12-17T10:48:17.815Z,39.53
2018-12-17T10:50:49.417Z,40.37
2018-12-17T10:53:19.949Z,39.27
2018-12-17T10:55:50.550Z,37.83
2018-12-17T10:58:21.122Z,38.87
2018-12-17T11:00:56.819Z,41.13
2018-12-17T11:03:31.532Z,38.17
2018-12-17T11:06:05.672Z,37.43
2018-12-17T11:08:36.323Z,39.93
2018-12-17T11:11:06.855Z,39.37
2018-12-17T11:13:37.978Z,39.47
2018-12-17T11:16:08.598Z,41.43
2018-12-17T11:18:39.280Z,41.63
2018-12-17T11:21:09.901Z,42.53
2018-12-17T11:23:40.488Z,42.83
2018-12-17T11:26:10.997Z,42.03
2018-12-17T11:28:41.883Z,44.17
2018-12-17T11:31:12.385Z,40.77
2018-12-17T11:33:42.996Z,42.00
2018-12-17T11:36:14.108Z,43.20
2018-12-17T11:38:44.634Z,46.47
2018-12-17T11:41:16.257Z,47.20
2018-12-17T11:43:46.823Z,45.33
2018-12-17T11:46:18.834Z,47.77
2018-12-17T11:48:49.455Z,51.17
2018-12-17T11:51:19.950Z,52.10
2018-12-17T11:53:50.463Z,43.73
2018-12-17T11:56:21.933Z,46.33
2018-12-17T11:58:52.437Z,46.60
2018-12-17T12:01:25.929Z,47.97
2018-12-17T12:03:56.532Z,53.10
2018-12-17T12:06:27.069Z,54.37
2018-12-17T12:08:57.595Z,47.20
2018-12-17T12:11:28.093Z,49.17
2018-12-17T12:13:58.702Z,45.03
2018-12-17T12:16:29.191Z,42.27
2018-12-17T12:18:59.695Z,41.97
2018-12-17T12:21:30.263Z,42.27
2018-12-17T12:24:00.892Z,43.07
2018-12-17T12:26:31.510Z,41.93
2018-12-17T12:29:03.469Z,44.07
2018-12-17T12:31:34.833Z,45.43
2018-12-17T12:34:05.635Z,41.20
2018-12-17T12:36:36.114Z,40.40
2018-12-17T12:39:08.766Z,39.83
2018-12-17T12:41:42.179Z,41.73
2018-12-17T12:44:12.825Z,40.97
2018-12-17T12:46:43.386Z,40.97
2018-12-17T12:49:15.016Z,43.60
2018-12-17T12:51:45.509Z,42.63
2018-12-17T12:54:16.080Z,43.97
2018-12-17T12:56:46.735Z,45.70
2018-12-17T12:59:17.464Z,44.87
2018-12-17T13:01:47.970Z,45.83
2018-12-17T13:04:18.579Z,47.10
2018-12-17T13:06:49.219Z,51.77
2018-12-17T13:09:22.864Z,49.57
2018-12-17T13:11:53.414Z,46.60
2018-12-17T13:14:24.038Z,44.93
2018-12-17T13:17:05.481Z,41.70
2018-12-17T13:19:35.930Z,43.03
2018-12-17T13:22:06.453Z,42.57
2018-12-17T13:24:36.934Z,43.57
2018-12-17T13:27:07.485Z,44.07
2018-12-17T13:29:38.073Z,45.00
2018-12-17T13:32:08.602Z,66.90
2018-12-17T13:34:39.103Z,56.30
2018-12-17T13:37:09.581Z,81.53
2018-12-17T13:39:41.021Z,63.10
2018-12-17T13:42:12.776Z,50.07
2018-12-17T13:44:43.329Z,46.53
2018-12-17T13:47:13.845Z,44.73
2018-12-17T13:49:51.805Z,46.60
2018-12-17T13:52:27.534Z,47.17
2018-12-17T13:54:58.097Z,44.13
2018-12-17T13:57:28.615Z,50.00
2018-12-17T13:59:59.103Z,49.63
2018-12-17T14:02:29.580Z,44.07
2018-12-17T14:05:00.090Z,46.17
2018-12-17T14:07:30.641Z,46.57
2018-12-17T14:11:06.523Z,47.70
2018-12-17T14:13:37.017Z,49.03
2018-12-17T14:16:12.831Z,47.53
2018-12-17T14:18:49.658Z,48.50
2018-12-17T14:21:25.303Z,46.87
2018-12-17T14:23:57.423Z,45.63
2018-12-17T14:26:28.142Z,46.67
2018-12-17T14:28:58.945Z,47.33
2018-12-17T14:31:33.020Z,46.50
2018-12-17T14:34:03.990Z,51.17
2018-12-17T14:36:34.538Z,53.10
2018-12-17T14:39:06.822Z,56.23
2018-12-17T14:41:38.830Z,48.57
2018-12-17T14:44:14.495Z,53.30
2018-12-17T14:46:50.247Z,50.73
2018-12-17T14:49:21.116Z,60.70
2018-12-17T14:51:51.741Z,69.03
2018-12-17T14:54:22.237Z,58.77
2018-12-17T14:56:52.774Z,61.87
2018-12-17T14:59:24.041Z,59.20
2018-12-17T15:01:54.560Z,52.47
2018-12-17T15:04:25.073Z,48.17
2018-12-17T15:06:55.589Z,49.47
2018-12-17T15:09:26.114Z,60.70
2018-12-17T15:11:56.661Z,64.83
2018-12-17T15:14:27.284Z,63.33
2018-12-17T15:16:57.794Z,73.77
2018-12-17T15:19:28.297Z,71.13
2018-12-17T15:21:58.785Z,92.40
2018-12-17T15:24:29.306Z,110.07
2018-12-17T15:26:59.870Z,112.87
2018-12-17T15:29:30.449Z,97.60
2018-12-17T15:32:03.832Z,87.23
2018-12-17T15:34:34.494Z,65.00
2018-12-17T15:37:06.858Z,65.73
2018-12-17T15:39:37.570Z,66.37
2018-12-17T15:42:08.537Z,49.53
2018-12-17T15:44:39.144Z,55.00
2018-12-17T15:47:09.779Z,55.57
2018-12-17T15:49:40.369Z,58.70
2018-12-17T15:52:10.897Z,65.77
2018-12-17T15:54:41.582Z,60.90
2018-12-17T15:57:12.286Z,55.77
2018-12-17T15:59:42.937Z,49.33
2018-12-17T16:02:13.513Z,42.73
2018-12-17T16:04:44.086Z,43.53
2018-12-17T16:07:14.724Z,44.43
2018-12-17T16:09:54.376Z,42.80
2018-12-17T16:12:25.257Z,42.77
2018-12-17T16:14:55.886Z,42.43
2018-12-17T16:17:26.551Z,42.90
2018-12-17T16:19:57.233Z,43.00
2018-12-17T16:22:28.079Z,42.60
2018-12-17T16:24:58.750Z,43.37
2018-12-17T16:27:29.736Z,42.20
2018-12-17T16:30:00.281Z,44.67
2018-12-17T16:32:30.838Z,41.07
2018-12-17T16:35:01.518Z,41.57
2018-12-17T16:37:32.410Z,41.07
2018-12-17T16:40:03.128Z,45.67
2018-12-17T16:42:33.694Z,51.57
2018-12-17T16:45:04.712Z,49.43
2018-12-17T16:47:35.172Z,49.07
2018-12-17T16:50:08.301Z,50.27
2018-12-17T16:52:39.110Z,50.53
2018-12-17T16:55:09.589Z,51.30
2018-12-17T16:57:40.371Z,50.57
2018-12-17T17:00:11.065Z,55.90
2018-12-17T17:02:42.209Z,53.90
2018-12-17T17:05:14.358Z,53.97
2018-12-17T17:07:44.977Z,54.47
2018-12-17T17:10:15.598Z,55.33
2018-12-17T17:12:46.132Z,53.80
2018-12-17T17:15:17.118Z,51.60
2018-12-17T17:17:47.664Z,54.77
2018-12-17T17:20:19.802Z,57.40
2018-12-17T17:22:50.849Z,58.30
2018-12-17T17:25:21.693Z,77.17
2018-12-17T17:27:52.303Z,124.40
2018-12-17T17:30:23.030Z,144.70
2018-12-17T17:32:54.213Z,106.10
2018-12-17T17:35:24.895Z,71.67
2018-12-17T17:37:55.496Z,63.43
2018-12-17T17:40:26.064Z,61.67
2018-12-17T17:42:56.701Z,52.33
2018-12-17T17:45:27.397Z,51.30
2018-12-17T17:47:58.132Z,49.33
2018-12-17T17:50:29.174Z,50.60
2018-12-17T17:52:59.763Z,56.90
2018-12-17T17:55:30.333Z,85.13
2018-12-17T17:58:00.878Z,67.23
2018-12-17T18:00:31.522Z,56.33
2018-12-17T18:03:02.102Z,54.03
2018-12-17T18:05:32.679Z,52.53
2018-12-17T21:02:08.563Z,112.63
2018-12-17T21:04:39.996Z,123.30
2018-12-17T21:07:11.518Z,155.30
2018-12-17T21:09:45.260Z,173.53
2018-12-17T21:12:16.309Z,254.30
2018-12-17T21:14:58.285Z,281.73
2018-12-17T21:33:50.885Z,218.23
2018-12-17T21:36:21.478Z,177.33
2018-12-17T21:42:02.695Z,127.33
2018-12-17T21:44:33.258Z,134.30
2018-12-17T21:47:03.977Z,154.13
2018-12-17T21:49:34.567Z,155.77
2018-12-17T21:52:05.241Z,133.40
2018-12-17T21:54:35.827Z,131.63
2018-12-17T21:57:06.481Z,127.17
2018-12-17T21:59:37.057Z,134.33
2018-12-17T22:02:07.868Z,117.10
2018-12-17T22:04:38.535Z,93.23
2018-12-17T22:07:10.485Z,79.43
2018-12-17T22:09:41.204Z,70.60
2018-12-17T22:12:11.671Z,73.80
2018-12-17T22:14:42.378Z,61.83
2018-12-17T22:17:13.114Z,79.67
2018-12-17T22:19:43.782Z,106.03
2018-12-17T22:22:14.705Z,124.27
2018-12-17T22:24:45.287Z,113.93
2018-12-17T22:27:15.837Z,99.20
2018-12-17T22:29:46.558Z,83.83
2018-12-17T22:32:17.175Z,83.53
2018-12-17T22:34:47.777Z,81.33
2018-12-17T22:37:18.330Z,89.50
2018-12-17T22:39:48.958Z,88.70
2018-12-17T22:42:19.525Z,83.20
2018-12-17T22:44:50.044Z,76.80
2018-12-17T22:47:20.754Z,82.57
2018-12-17T22:49:51.789Z,76.73
2018-12-17T22:52:22.324Z,79.97
2018-12-17T22:54:52.958Z,79.20
2018-12-17T22:57:23.488Z,77.40
2018-12-17T22:59:54.103Z,87.10
2018-12-17T23:02:24.629Z,86.97
2018-12-17T23:04:58.051Z,90.20
2018-12-17T23:07:32.872Z,82.67
2018-12-17T23:10:21.265Z,83.07
2018-12-17T23:13:08.664Z,80.40
2018-12-17T23:15:55.869Z,83.20
2018-12-17T23:21:06.927Z,96.97
2018-12-17T23:23:39.591Z,95.23
2018-12-17T23:26:11.409Z,94.10
2018-12-17T23:28:42.118Z,99.03
2018-12-17T23:31:12.702Z,91.17
2018-12-17T23:33:43.234Z,84.90
2018-12-17T23:36:13.763Z,84.60
2018-12-17T23:38:44.255Z,84.63
2018-12-17T23:41:14.795Z,83.87
2018-12-17T23:43:45.314Z,90.57
2018-12-17T23:46:15.857Z,85.03
2018-12-17T23:48:46.334Z,76.37
2018-12-17T23:51:17.298Z,87.47
2018-12-17T23:53:48.908Z,80.63
2018-12-17T23:56:19.614Z,81.93
2018-12-17T23:58:50.164Z,81.37
